createdAt,value
2023-01-30T00:00:16.508Z,1.01
2023-01-30T00:01:21.881Z,0.55
2023-01-30T00:02:29.780Z,0.46
2023-01-30T00:03:33.264Z,0.62
2023-01-30T00:04:36.673Z,0.70
2023-01-30T00:05:39.452Z,0.84
2023-01-30T00:06:42.013Z,0.92
2023-01-30T00:07:47.644Z,0.98
2023-01-30T00:08:51.668Z,0.96
2023-01-30T00:09:55.231Z,0.92
2023-01-30T00:10:58.539Z,0.97
2023-01-30T00:12:01.751Z,1.08
2023-01-30T00:13:04.051Z,1.14
2023-01-30T00:14:08.469Z,1.17
2023-01-30T00:15:12.044Z,1.22
2023-01-30T00:16:16.617Z,1.24
2023-01-30T00:17:18.839Z,1.30
2023-01-30T00:18:22.017Z,1.29
2023-01-30T00:19:25.326Z,1.30
2023-01-30T00:20:28.832Z,1.24
2023-01-30T00:21:32.339Z,1.17
2023-01-30T00:22:38.245Z,1.15
2023-01-30T00:23:42.061Z,1.14
2023-01-30T00:24:45.407Z,1.05
2023-01-30T00:25:47.917Z,1.18
2023-01-30T00:26:51.642Z,1.22
2023-01-30T00:27:56.190Z,1.12
2023-01-30T00:29:01.989Z,0.93
2023-01-30T00:30:10.056Z,0.92
2023-01-30T00:31:15.993Z,0.96
2023-01-30T00:32:20.193Z,1.01
2023-01-30T00:33:26.570Z,1.09
2023-01-30T00:34:30.263Z,0.93
2023-01-30T00:35:35.552Z,0.81
2023-01-30T00:36:38.882Z,0.68
2023-01-30T00:37:43.590Z,0.77
2023-01-30T00:38:48.736Z,0.87
2023-01-30T00:39:56.156Z,0.99
2023-01-30T00:40:59.576Z,1.00
2023-01-30T00:42:21.213Z,0.94
2023-01-30T00:43:43.583Z,1.00
2023-01-30T00:45:03.957Z,1.16
2023-01-30T00:46:27.837Z,1.04
2023-01-30T00:47:31.529Z,0.94
2023-01-30T00:48:36.135Z,0.97
2023-01-30T00:49:40.858Z,0.97
2023-01-30T00:50:45.408Z,1.06
2023-01-30T00:51:48.795Z,1.11
2023-01-30T00:52:52.210Z,0.96
2023-01-30T00:53:55.705Z,0.83
2023-01-30T00:54:58.829Z,0.79
2023-01-30T00:56:04.106Z,0.81
2023-01-30T00:57:08.527Z,0.81
2023-01-30T00:58:11.835Z,0.76
2023-01-30T00:59:14.502Z,0.80
2023-01-30T01:00:18.937Z,0.86
2023-01-30T01:01:22.549Z,0.95
2023-01-30T01:02:26.473Z,1.01
2023-01-30T01:03:29.141Z,1.01
2023-01-30T01:04:33.899Z,0.98
2023-01-30T01:05:37.408Z,1.08
2023-01-30T01:06:40.179Z,1.05
2023-01-30T01:07:42.532Z,1.04
2023-01-30T01:08:45.888Z,0.96
2023-01-30T01:09:50.276Z,0.99
2023-01-30T01:10:53.145Z,0.91
2023-01-30T01:11:58.534Z,0.92
2023-01-30T01:13:02.042Z,0.92
2023-01-30T01:14:07.126Z,0.55
2023-01-30T01:15:10.933Z,0.47
2023-01-30T01:16:14.334Z,0.34
2023-01-30T01:17:17.734Z,0.50
2023-01-30T01:18:22.095Z,0.56
2023-01-30T01:19:25.474Z,0.58
2023-01-30T01:20:28.861Z,0.47
2023-01-30T01:21:32.516Z,0.50
2023-01-30T01:22:37.439Z,0.50
2023-01-30T01:23:39.692Z,0.57
2023-01-30T01:24:43.091Z,0.58
2023-01-30T01:25:46.614Z,0.65
2023-01-30T01:26:52.364Z,0.67
2023-01-30T01:28:01.972Z,0.66
2023-01-30T01:29:05.049Z,0.68
2023-01-30T01:30:10.256Z,0.72
2023-01-30T01:31:14.483Z,0.79
2023-01-30T01:32:17.978Z,0.86
2023-01-30T01:33:23.382Z,0.83
2023-01-30T01:34:26.971Z,0.89
2023-01-30T01:35:29.222Z,0.83
2023-01-30T01:37:02.457Z,0.65
2023-01-30T01:37:39.268Z,0.57
2023-01-30T01:38:44.124Z,0.68
2023-01-30T01:40:07.371Z,0.81
2023-01-30T01:41:12.472Z,0.76
2023-01-30T01:42:16.160Z,0.80
2023-01-30T01:43:25.374Z,0.80
2023-01-30T01:44:27.871Z,0.92
2023-01-30T01:45:30.956Z,0.91
2023-01-30T01:46:38.418Z,0.90
2023-01-30T01:47:42.558Z,0.93
2023-01-30T01:48:47.665Z,0.94
2023-01-30T01:49:51.083Z,1.05
2023-01-30T01:50:56.317Z,0.88
2023-01-30T01:52:03.593Z,0.79
2023-01-30T01:53:07.605Z,0.72
2023-01-30T01:54:11.835Z,0.73
2023-01-30T01:55:18.026Z,0.59
2023-01-30T01:56:21.775Z,0.62
2023-01-30T01:57:26.957Z,0.55
2023-01-30T01:58:34.430Z,0.65
2023-01-30T01:59:44.551Z,0.70
2023-01-30T02:00:49.142Z,0.56
2023-01-30T02:01:53.182Z,0.56
2023-01-30T02:02:57.729Z,0.66
2023-01-30T02:04:01.905Z,0.47
2023-01-30T02:05:06.253Z,0.48
2023-01-30T02:06:13.582Z,0.48
2023-01-30T02:07:19.910Z,0.58
2023-01-30T02:08:26.128Z,0.61
2023-01-30T02:09:29.654Z,0.67
2023-01-30T02:10:37.423Z,0.72
2023-01-30T02:11:46.674Z,0.63
2023-01-30T02:12:51.534Z,0.52
2023-01-30T02:13:57.577Z,0.54
2023-01-30T02:15:01.367Z,0.50
2023-01-30T02:16:05.887Z,0.57
2023-01-30T02:17:09.421Z,0.52
2023-01-30T02:18:16.688Z,0.48
2023-01-30T02:19:39.407Z,0.44
2023-01-30T02:20:50.119Z,0.46
2023-01-30T02:23:21.674Z,0.70
2023-01-30T02:24:43.969Z,0.60
2023-01-30T02:26:04.525Z,0.47
2023-01-30T02:27:25.881Z,0.34
2023-01-30T02:28:47.644Z,0.40
2023-01-30T02:29:52.413Z,0.61
2023-01-30T02:31:06.874Z,0.57
2023-01-30T02:32:28.465Z,0.70
2023-01-30T02:33:34.089Z,0.59
2023-01-30T02:34:50.863Z,0.65
2023-01-30T02:35:56.281Z,0.53
2023-01-30T02:37:03.377Z,0.44
2023-01-30T02:38:11.882Z,0.48
2023-01-30T02:39:21.875Z,0.47
2023-01-30T02:40:28.408Z,0.59
2023-01-30T02:41:51.757Z,0.67
2023-01-30T02:43:02.051Z,0.57
2023-01-30T02:44:13.807Z,0.67
2023-01-30T02:45:19.141Z,0.58
2023-01-30T02:46:24.811Z,0.64
2023-01-30T02:47:33.820Z,0.70
2023-01-30T02:48:42.246Z,0.77
2023-01-30T02:49:48.468Z,0.68
2023-01-30T02:50:54.895Z,0.65
2023-01-30T02:52:00.529Z,0.70
2023-01-30T02:53:06.384Z,0.81
2023-01-30T02:54:12.929Z,0.70
2023-01-30T02:55:27.400Z,0.70
2023-01-30T02:56:30.401Z,0.79
2023-01-30T02:57:36.705Z,0.72
2023-01-30T02:58:43.449Z,0.68
2023-01-30T02:59:49.775Z,0.78
2023-01-30T03:00:55.378Z,0.67
2023-01-30T03:02:00.011Z,0.63
2023-01-30T03:03:10.212Z,0.73
2023-01-30T03:04:18.727Z,0.70
2023-01-30T03:05:28.006Z,0.75
2023-01-30T03:06:51.751Z,0.62
2023-01-30T03:07:56.896Z,0.51
2023-01-30T03:09:12.851Z,0.61
2023-01-30T03:10:24.201Z,0.71
2023-01-30T03:11:32.217Z,0.69
2023-01-30T03:12:43.825Z,0.66
2023-01-30T03:13:58.518Z,0.66
2023-01-30T03:15:05.797Z,0.68
2023-01-30T03:16:11.730Z,0.64
2023-01-30T03:17:17.298Z,0.60
2023-01-30T03:18:20.476Z,0.50
2023-01-30T03:19:24.407Z,0.25
2023-01-30T03:20:28.744Z,0.28
2023-01-30T03:21:32.364Z,0.52
2023-01-30T03:22:40.111Z,0.70
2023-01-30T03:23:44.604Z,0.74
2023-01-30T03:24:48.817Z,0.70
2023-01-30T03:25:52.216Z,0.66
2023-01-30T03:26:56.773Z,0.60
2023-01-30T03:28:02.731Z,0.61
2023-01-30T03:29:06.822Z,0.52
2023-01-30T03:30:11.050Z,0.59
2023-01-30T03:31:14.786Z,0.59
2023-01-30T03:32:20.986Z,0.51
2023-01-30T03:33:25.693Z,0.39
2023-01-30T03:34:31.771Z,0.38
2023-01-30T03:35:35.959Z,0.55
2023-01-30T03:36:39.279Z,0.57
2023-01-30T03:37:41.746Z,0.59
2023-01-30T03:38:45.155Z,0.57
2023-01-30T03:39:48.653Z,0.75
2023-01-30T03:40:52.932Z,0.80
2023-01-30T03:41:58.909Z,0.83
2023-01-30T03:43:05.985Z,0.85
2023-01-30T03:44:09.878Z,0.78
2023-01-30T03:45:15.202Z,0.74
2023-01-30T03:46:19.462Z,0.73
2023-01-30T03:47:23.215Z,0.65
2023-01-30T03:48:27.557Z,0.65
2023-01-30T03:49:31.168Z,0.67
2023-01-30T03:50:35.831Z,0.58
2023-01-30T03:51:40.683Z,0.33
2023-01-30T03:52:43.872Z,0.27
2023-01-30T03:53:49.056Z,0.29
2023-01-30T03:54:52.286Z,0.61
2023-01-30T03:55:56.195Z,0.78
2023-01-30T03:57:01.253Z,0.80
2023-01-30T03:58:05.054Z,0.70
2023-01-30T03:59:10.199Z,0.75
2023-01-30T04:00:16.235Z,0.83
2023-01-30T04:01:22.469Z,0.89
2023-01-30T04:02:26.875Z,0.65
2023-01-30T04:03:30.220Z,0.61
2023-01-30T04:04:36.325Z,0.70
2023-01-30T04:05:42.227Z,0.70
2023-01-30T04:06:45.340Z,0.70
2023-01-30T04:07:49.656Z,0.62
2023-01-30T04:08:54.244Z,0.52
2023-01-30T04:09:59.596Z,0.64
2023-01-30T04:11:03.067Z,0.79
2023-01-30T04:12:07.228Z,0.73
2023-01-30T04:13:12.336Z,0.70
2023-01-30T04:14:15.407Z,0.64
2023-01-30T04:15:32.143Z,0.78
2023-01-30T04:16:49.774Z,0.65
2023-01-30T04:18:13.025Z,0.73
2023-01-30T04:19:33.424Z,0.62
2023-01-30T04:20:37.046Z,0.54
2023-01-30T04:21:40.643Z,0.51
2023-01-30T04:22:43.853Z,0.66
2023-01-30T04:23:48.190Z,0.61
2023-01-30T04:24:52.614Z,0.67
2023-01-30T04:25:56.944Z,0.70
2023-01-30T04:27:00.358Z,0.68
2023-01-30T04:28:05.151Z,0.84
2023-01-30T04:29:10.408Z,0.99
2023-01-30T04:30:14.539Z,1.04
2023-01-30T04:31:18.399Z,1.05
2023-01-30T04:32:36.499Z,1.02
2023-01-30T04:33:39.786Z,1.11
2023-01-30T04:34:45.514Z,1.17
2023-01-30T04:35:59.138Z,1.23
2023-01-30T04:37:01.986Z,1.21
2023-01-30T04:38:05.087Z,1.18
2023-01-30T04:39:08.405Z,1.03
2023-01-30T04:40:12.955Z,1.00
2023-01-30T04:41:16.329Z,0.98
2023-01-30T04:42:20.898Z,0.89
2023-01-30T04:43:26.607Z,0.82
2023-01-30T04:44:45.755Z,0.72
2023-01-30T04:45:52.976Z,0.82
2023-01-30T04:46:56.519Z,0.87
2023-01-30T04:48:00.781Z,0.84
2023-01-30T04:49:04.040Z,0.92
2023-01-30T04:50:08.290Z,0.73
2023-01-30T04:51:11.262Z,0.84
2023-01-30T04:52:14.671Z,0.92
2023-01-30T04:53:19.117Z,0.92
2023-01-30T04:54:22.923Z,0.90
2023-01-30T04:55:26.146Z,0.72
2023-01-30T04:56:29.359Z,0.79
2023-01-30T04:57:31.710Z,0.63
2023-01-30T04:58:35.840Z,0.50
2023-01-30T04:59:39.418Z,0.63
2023-01-30T05:00:43.348Z,0.60
2023-01-30T05:01:45.720Z,0.81
2023-01-30T05:02:49.721Z,0.89
2023-01-30T05:03:54.159Z,0.83
2023-01-30T05:04:56.836Z,0.67
2023-01-30T05:06:00.234Z,0.69
2023-01-30T05:07:02.491Z,0.72
2023-01-30T05:08:06.420Z,0.81
2023-01-30T05:09:10.370Z,0.81
2023-01-30T05:10:13.314Z,0.70
2023-01-30T05:11:16.935Z,0.79
2023-01-30T05:12:20.638Z,0.62
2023-01-30T05:13:25.199Z,0.78
2023-01-30T05:14:28.798Z,0.78
2023-01-30T05:15:32.262Z,0.79
2023-01-30T05:16:34.764Z,0.75
2023-01-30T05:17:38.164Z,0.60
2023-01-30T05:18:41.982Z,0.61
2023-01-30T05:19:45.201Z,0.65
2023-01-30T05:20:48.679Z,0.73
2023-01-30T05:21:52.600Z,0.85
2023-01-30T05:22:54.956Z,0.98
2023-01-30T05:23:59.392Z,1.01
2023-01-30T05:25:01.642Z,1.09
2023-01-30T05:26:04.531Z,1.08
2023-01-30T05:27:11.093Z,0.88
2023-01-30T05:28:14.887Z,0.89
2023-01-30T05:29:20.159Z,0.77
2023-01-30T05:30:24.270Z,0.52
2023-01-30T05:31:26.646Z,0.68
2023-01-30T05:32:30.267Z,0.85
2023-01-30T05:33:34.755Z,0.59
2023-01-30T05:34:38.218Z,0.75
2023-01-30T05:35:47.563Z,0.56
2023-01-30T05:36:54.551Z,0.60
2023-01-30T05:37:59.487Z,0.85
2023-01-30T05:39:02.067Z,0.79
2023-01-30T05:40:06.748Z,0.62
2023-01-30T05:41:12.292Z,0.64
2023-01-30T05:42:15.593Z,0.75
2023-01-30T05:43:18.994Z,0.66
2023-01-30T05:44:22.813Z,0.74
2023-01-30T05:45:26.531Z,0.41
2023-01-30T05:46:30.198Z,0.64
2023-01-30T05:47:33.743Z,0.57
2023-01-30T05:48:37.275Z,0.67
2023-01-30T05:49:40.596Z,0.66
2023-01-30T05:50:44.367Z,0.59
2023-01-30T05:51:49.387Z,0.69
2023-01-30T05:52:53.259Z,0.61
2023-01-30T05:53:57.073Z,0.69
2023-01-30T05:54:59.842Z,0.87
2023-01-30T05:56:03.770Z,0.95
2023-01-30T05:57:07.162Z,0.95
2023-01-30T05:58:09.765Z,0.70
2023-01-30T05:59:13.447Z,0.60
2023-01-30T06:00:17.267Z,0.79
2023-01-30T06:01:20.939Z,0.93
2023-01-30T06:02:23.582Z,0.93
2023-01-30T06:03:26.864Z,0.94
2023-01-30T06:04:29.095Z,0.84
2023-01-30T06:05:31.454Z,0.76
2023-01-30T06:06:36.211Z,0.84
2023-01-30T06:07:39.806Z,0.89
2023-01-30T06:08:42.172Z,1.04
2023-01-30T06:09:47.454Z,1.13
2023-01-30T06:10:52.189Z,1.13
2023-01-30T06:11:57.164Z,0.73
2023-01-30T06:13:01.208Z,0.64
2023-01-30T06:14:04.326Z,0.82
2023-01-30T06:15:08.146Z,0.97
2023-01-30T06:16:13.176Z,0.96
2023-01-30T06:17:17.003Z,1.01
2023-01-30T06:18:22.605Z,1.04
2023-01-30T06:19:29.542Z,1.08
2023-01-30T06:20:32.966Z,1.08
2023-01-30T06:21:35.839Z,1.06
2023-01-30T06:22:40.061Z,1.09
2023-01-30T06:24:04.145Z,1.06
2023-01-30T06:25:06.700Z,1.20
2023-01-30T06:26:10.444Z,1.34
2023-01-30T06:27:15.181Z,1.37
2023-01-30T06:28:18.679Z,1.45
2023-01-30T06:29:22.087Z,1.47
2023-01-30T06:30:25.242Z,1.35
2023-01-30T06:31:27.545Z,1.40
2023-01-30T06:32:31.169Z,1.46
2023-01-30T06:33:35.674Z,1.03
2023-01-30T06:34:41.027Z,1.20
2023-01-30T06:35:44.291Z,1.15
2023-01-30T06:36:47.759Z,1.13
2023-01-30T06:37:50.953Z,1.13
2023-01-30T06:38:55.225Z,1.24
2023-01-30T06:39:58.183Z,1.23
2023-01-30T06:41:00.452Z,1.38
2023-01-30T06:42:03.938Z,1.42
2023-01-30T06:43:08.068Z,1.54
2023-01-30T06:44:11.567Z,1.43
2023-01-30T06:45:15.394Z,1.34
2023-01-30T06:46:19.130Z,1.30
2023-01-30T06:47:23.236Z,1.46
2023-01-30T06:48:26.100Z,1.35
2023-01-30T06:49:29.413Z,1.14
2023-01-30T06:50:33.967Z,1.44
2023-01-30T06:51:37.199Z,1.59
2023-01-30T06:52:44.017Z,1.55
2023-01-30T06:53:47.593Z,1.49
2023-01-30T06:54:51.011Z,1.60
2023-01-30T06:55:53.591Z,1.45
2023-01-30T06:56:56.749Z,1.37
2023-01-30T06:58:08.312Z,1.12
2023-01-30T06:59:13.909Z,1.08
2023-01-30T07:00:19.951Z,1.14
2023-01-30T07:01:23.549Z,1.39
2023-01-30T07:02:29.569Z,1.51
2023-01-30T07:03:36.903Z,1.56
2023-01-30T07:04:43.342Z,1.52
2023-01-30T07:05:49.677Z,1.33
2023-01-30T07:06:52.847Z,1.48
2023-01-30T07:07:55.537Z,1.50
2023-01-30T07:08:59.154Z,1.26
2023-01-30T07:10:08.262Z,1.48
2023-01-30T07:11:08.131Z,1.34
2023-01-30T07:12:11.531Z,1.31
2023-01-30T07:13:16.559Z,1.31
2023-01-30T07:14:22.439Z,1.35
2023-01-30T07:15:25.601Z,1.11
2023-01-30T07:16:29.986Z,1.26
2023-01-30T07:17:33.240Z,1.33
2023-01-30T07:18:37.543Z,1.14
2023-01-30T07:19:41.185Z,1.23
2023-01-30T07:20:47.299Z,1.26
2023-01-30T07:21:51.137Z,1.03
2023-01-30T07:22:56.431Z,1.26
2023-01-30T07:24:00.530Z,1.50
2023-01-30T07:25:04.463Z,1.59
2023-01-30T07:26:09.991Z,1.53
2023-01-30T07:27:13.658Z,1.37
2023-01-30T07:28:16.945Z,1.60
2023-01-30T07:29:20.458Z,1.64
2023-01-30T07:30:22.829Z,1.81
2023-01-30T07:31:26.468Z,1.70
2023-01-30T07:32:30.783Z,1.78
2023-01-30T07:33:33.005Z,1.83
2023-01-30T07:34:36.313Z,1.67
2023-01-30T07:35:38.780Z,1.52
2023-01-30T07:36:42.177Z,1.72
2023-01-30T07:37:46.201Z,1.35
2023-01-30T07:38:50.541Z,1.10
2023-01-30T07:39:53.830Z,1.37
2023-01-30T07:40:57.261Z,1.01
2023-01-30T07:42:03.919Z,1.34
2023-01-30T07:43:08.624Z,1.63
2023-01-30T07:44:13.371Z,1.69
2023-01-30T07:45:16.342Z,1.38
2023-01-30T07:46:20.920Z,1.32
2023-01-30T07:47:26.063Z,1.27
2023-01-30T07:48:29.219Z,1.19
2023-01-30T07:49:36.277Z,1.30
2023-01-30T07:50:39.431Z,1.38
2023-01-30T07:51:46.493Z,1.50
2023-01-30T07:52:50.218Z,1.55
2023-01-30T07:53:53.349Z,1.19
2023-01-30T07:55:00.034Z,1.14
2023-01-30T07:56:14.672Z,1.30
2023-01-30T07:57:18.877Z,1.39
2023-01-30T07:58:22.356Z,1.41
2023-01-30T07:59:25.866Z,1.23
2023-01-30T08:00:29.264Z,1.33
2023-01-30T08:01:34.624Z,1.18
2023-01-30T08:02:38.765Z,1.18
2023-01-30T08:03:45.181Z,1.01
2023-01-30T08:04:48.863Z,1.18
2023-01-30T08:05:53.579Z,1.34
2023-01-30T08:06:58.021Z,1.30
2023-01-30T08:08:01.366Z,1.32
2023-01-30T08:09:04.090Z,1.09
2023-01-30T08:10:09.326Z,1.32
2023-01-30T08:11:12.771Z,1.30
2023-01-30T08:12:16.893Z,1.31
2023-01-30T08:13:20.091Z,1.47
2023-01-30T08:14:24.675Z,1.31
2023-01-30T08:15:27.939Z,1.45
2023-01-30T08:16:34.479Z,1.59
2023-01-30T08:17:37.979Z,1.60
2023-01-30T08:18:41.367Z,1.40
2023-01-30T08:19:44.679Z,1.29
2023-01-30T08:20:48.076Z,1.11
2023-01-30T08:21:54.294Z,1.18
2023-01-30T08:22:59.054Z,0.89
2023-01-30T08:24:07.574Z,1.18
2023-01-30T08:25:11.724Z,1.03
2023-01-30T08:26:16.641Z,1.13
2023-01-30T08:27:20.095Z,1.24
2023-01-30T08:28:23.785Z,1.23
2023-01-30T08:29:26.339Z,1.36
2023-01-30T08:30:31.066Z,1.44
2023-01-30T08:31:34.751Z,1.63
2023-01-30T08:32:37.795Z,1.80
2023-01-30T08:33:42.460Z,1.96
2023-01-30T08:34:45.658Z,2.01
2023-01-30T08:35:48.112Z,2.10
2023-01-30T08:36:51.098Z,2.09
2023-01-30T08:37:53.358Z,2.18
2023-01-30T08:38:57.573Z,2.21
2023-01-30T08:40:04.093Z,2.17
2023-01-30T08:41:08.657Z,2.25
2023-01-30T08:42:12.388Z,1.95
2023-01-30T08:43:17.273Z,1.99
2023-01-30T08:44:19.598Z,2.00
2023-01-30T08:45:22.906Z,1.82
2023-01-30T08:46:29.023Z,1.97
2023-01-30T08:47:33.595Z,2.11
2023-01-30T08:48:49.486Z,1.88
2023-01-30T08:49:46.113Z,1.56
2023-01-30T08:50:51.490Z,1.47
2023-01-30T08:51:54.925Z,1.80
2023-01-30T08:52:58.606Z,1.72
2023-01-30T08:54:03.466Z,1.70
2023-01-30T08:55:07.294Z,1.69
2023-01-30T08:56:10.997Z,1.61
2023-01-30T08:57:14.714Z,1.54
2023-01-30T08:58:17.819Z,1.75
2023-01-30T08:59:23.080Z,1.54
2023-01-30T09:00:29.368Z,1.74
2023-01-30T09:01:32.734Z,2.01
2023-01-30T09:02:36.864Z,1.85
2023-01-30T09:03:40.648Z,1.59
2023-01-30T09:04:43.011Z,1.65
2023-01-30T09:05:46.864Z,1.92
2023-01-30T09:06:49.601Z,1.89
2023-01-30T09:07:53.763Z,2.19
2023-01-30T09:08:57.065Z,1.98
2023-01-30T09:10:00.960Z,1.96
2023-01-30T09:11:05.510Z,2.00
2023-01-30T09:12:08.893Z,1.82
2023-01-30T09:13:12.588Z,1.83
2023-01-30T09:14:20.831Z,1.70
2023-01-30T09:15:23.254Z,1.87
2023-01-30T09:16:26.811Z,1.78
2023-01-30T09:17:30.288Z,2.00
2023-01-30T09:18:36.442Z,1.88
2023-01-30T09:19:40.443Z,1.73
2023-01-30T09:20:44.045Z,1.60
2023-01-30T09:21:50.197Z,1.62
2023-01-30T09:22:53.521Z,1.81
2023-01-30T09:23:56.232Z,1.92
2023-01-30T09:25:01.609Z,1.93
2023-01-30T09:26:04.597Z,2.11
2023-01-30T09:27:07.781Z,1.97
2023-01-30T09:28:10.360Z,1.75
2023-01-30T09:29:14.697Z,1.62
2023-01-30T09:30:19.013Z,1.73
2023-01-30T09:31:23.260Z,1.56
2023-01-30T09:32:30.279Z,1.63
2023-01-30T09:33:33.508Z,1.65
2023-01-30T09:34:36.919Z,1.79
2023-01-30T09:35:40.135Z,1.89
2023-01-30T09:36:45.000Z,1.91
2023-01-30T09:37:49.219Z,2.23
2023-01-30T09:38:52.507Z,2.04
2023-01-30T09:39:56.218Z,1.97
2023-01-30T09:41:01.510Z,1.72
2023-01-30T09:42:07.814Z,1.94
2023-01-30T09:43:12.199Z,1.99
2023-01-30T09:44:29.237Z,2.10
2023-01-30T09:45:37.663Z,1.98
2023-01-30T09:46:45.515Z,2.00
2023-01-30T09:48:08.699Z,1.76
2023-01-30T09:49:15.969Z,1.63
2023-01-30T09:50:30.015Z,1.57
2023-01-30T09:51:37.160Z,1.71
2023-01-30T09:52:59.325Z,1.59
2023-01-30T09:54:09.671Z,1.51
2023-01-30T09:55:27.892Z,1.68
2023-01-30T09:56:30.781Z,1.78
2023-01-30T09:57:35.343Z,1.68
2023-01-30T09:58:40.570Z,1.73
2023-01-30T09:59:59.785Z,1.56
2023-01-30T10:01:04.773Z,1.21
2023-01-30T10:02:15.267Z,1.26
2023-01-30T10:03:20.739Z,1.35
2023-01-30T10:04:25.959Z,1.48
2023-01-30T10:05:35.204Z,1.66
2023-01-30T10:06:40.338Z,1.63
2023-01-30T10:07:46.228Z,1.57
2023-01-30T10:08:55.076Z,1.72
2023-01-30T10:10:01.131Z,1.54
2023-01-30T10:11:10.737Z,1.34
2023-01-30T10:12:17.183Z,1.36
2023-01-30T10:13:23.693Z,1.56
2023-01-30T10:14:44.248Z,1.63
2023-01-30T10:16:06.379Z,1.68
2023-01-30T10:17:27.413Z,1.86
2023-01-30T10:18:32.699Z,1.72
2023-01-30T10:19:36.938Z,1.58
2023-01-30T10:20:59.127Z,1.40
2023-01-30T10:22:11.306Z,1.35
2023-01-30T10:23:16.058Z,1.68
2023-01-30T10:24:33.035Z,1.69
2023-01-30T10:25:37.577Z,1.68
2023-01-30T10:26:42.877Z,1.66
2023-01-30T10:27:55.194Z,1.91
2023-01-30T10:29:16.303Z,1.79
2023-01-30T10:30:21.253Z,1.56
2023-01-30T10:31:26.909Z,1.68
2023-01-30T10:32:32.772Z,1.64
2023-01-30T10:33:40.767Z,1.74
2023-01-30T10:34:45.776Z,1.90
2023-01-30T10:35:49.853Z,1.64
2023-01-30T10:36:53.999Z,1.66
2023-01-30T10:38:20.656Z,1.75
2023-01-30T10:39:28.369Z,1.91
2023-01-30T10:40:33.754Z,1.86
2023-01-30T10:41:39.386Z,2.09
2023-01-30T10:42:44.743Z,2.14
2023-01-30T10:43:52.557Z,1.93
2023-01-30T10:44:58.955Z,1.96
2023-01-30T10:46:17.059Z,1.93
2023-01-30T10:47:46.303Z,1.88
2023-01-30T10:48:52.712Z,1.95
2023-01-30T10:49:59.756Z,2.09
2023-01-30T10:51:08.026Z,1.93
2023-01-30T10:52:13.369Z,2.00
2023-01-30T10:53:20.007Z,1.93
2023-01-30T10:54:27.572Z,1.96
2023-01-30T10:55:40.269Z,1.61
2023-01-30T10:56:52.008Z,1.63
2023-01-30T10:58:10.153Z,1.71
2023-01-30T10:59:18.045Z,1.77
2023-01-30T11:00:29.385Z,1.65
2023-01-30T11:01:34.574Z,1.75
2023-01-30T11:02:39.961Z,1.54
2023-01-30T11:03:55.496Z,1.82
2023-01-30T11:05:00.959Z,1.91
2023-01-30T11:06:05.712Z,2.01
2023-01-30T11:07:09.743Z,1.64
2023-01-30T11:09:39.106Z,1.88
2023-01-30T11:10:42.383Z,1.89
2023-01-30T11:11:46.538Z,1.87
2023-01-30T11:12:51.524Z,1.74
2023-01-30T11:14:07.692Z,1.89
2023-01-30T11:15:12.715Z,2.12
2023-01-30T11:16:16.573Z,2.31
2023-01-30T11:17:21.182Z,1.67
2023-01-30T11:19:35.401Z,1.77
2023-01-30T11:20:41.399Z,1.89
2023-01-30T11:21:46.167Z,1.90
2023-01-30T11:22:59.953Z,1.81
2023-01-30T11:25:21.170Z,1.79
2023-01-30T11:26:34.746Z,1.96
2023-01-30T11:27:33.203Z,2.05
2023-01-30T11:28:38.536Z,2.21
2023-01-30T11:29:42.239Z,2.38
2023-01-30T11:30:47.237Z,2.20
2023-01-30T11:31:51.743Z,2.33
2023-01-30T11:32:57.293Z,2.00
2023-01-30T11:34:01.924Z,2.29
2023-01-30T11:35:07.295Z,2.46
2023-01-30T11:36:15.633Z,2.00
2023-01-30T11:37:27.043Z,1.81
2023-01-30T11:38:31.380Z,1.90
2023-01-30T11:39:35.853Z,1.71
2023-01-30T11:40:40.488Z,1.65
2023-01-30T11:41:45.478Z,1.79
2023-01-30T11:42:50.731Z,1.75
2023-01-30T11:43:55.283Z,1.52
2023-01-30T11:45:16.811Z,1.59
2023-01-30T11:46:09.969Z,1.56
2023-01-30T11:47:15.290Z,1.52
2023-01-30T11:48:33.129Z,1.40
2023-01-30T11:49:48.151Z,1.51
2023-01-30T11:50:40.870Z,1.54
2023-01-30T11:51:45.036Z,1.30
2023-01-30T11:52:48.747Z,1.44
2023-01-30T11:53:54.991Z,1.71
2023-01-30T11:55:04.912Z,1.81
2023-01-30T11:56:24.377Z,1.62
2023-01-30T11:57:28.107Z,1.57
2023-01-30T11:58:33.395Z,1.69
2023-01-30T11:59:38.245Z,1.82
2023-01-30T12:00:43.216Z,1.56
2023-01-30T12:01:46.875Z,1.63
2023-01-30T12:02:54.760Z,1.64
2023-01-30T12:03:58.741Z,1.80
2023-01-30T12:05:04.146Z,1.82
2023-01-30T12:06:07.841Z,1.74
2023-01-30T12:07:21.995Z,1.72
2023-01-30T12:08:40.487Z,1.52
2023-01-30T12:09:33.914Z,1.42
2023-01-30T12:10:38.468Z,1.44
2023-01-30T12:11:46.709Z,1.35
2023-01-30T12:12:52.346Z,1.48
2023-01-30T12:13:59.116Z,1.71
2023-01-30T12:15:03.773Z,1.57
2023-01-30T12:16:21.821Z,1.68
2023-01-30T12:17:31.142Z,1.72
2023-01-30T12:18:41.963Z,1.72
2023-01-30T12:19:53.186Z,1.60
2023-01-30T12:20:58.272Z,1.85
2023-01-30T12:22:10.729Z,1.66
2023-01-30T12:23:27.307Z,1.69
2023-01-30T12:24:53.265Z,1.79
2023-01-30T12:26:16.913Z,1.40
2023-01-30T12:27:23.365Z,1.61
2023-01-30T12:28:29.307Z,1.84
2023-01-30T12:29:35.615Z,1.49
2023-01-30T12:31:44.389Z,1.65
2023-01-30T12:32:47.581Z,1.81
2023-01-30T12:33:50.586Z,1.72
2023-01-30T12:34:54.720Z,2.01
2023-01-30T12:35:59.246Z,2.20
2023-01-30T12:37:03.475Z,2.09
2023-01-30T12:38:12.263Z,2.15
2023-01-30T12:39:16.435Z,1.81
2023-01-30T12:40:38.126Z,1.80
2023-01-30T12:41:43.511Z,1.97
2023-01-30T12:42:55.920Z,2.18
2023-01-30T12:44:03.530Z,2.25
2023-01-30T12:45:09.899Z,2.17
2023-01-30T12:46:28.946Z,2.22
2023-01-30T12:47:36.676Z,2.02
2023-01-30T12:49:13.486Z,1.93
2023-01-30T12:50:06.534Z,2.05
2023-01-30T12:51:23.617Z,2.11
2023-01-30T12:52:45.808Z,1.91
2023-01-30T12:53:49.951Z,2.08
2023-01-30T12:55:01.073Z,2.06
2023-01-30T12:56:06.141Z,1.89
2023-01-30T12:57:17.062Z,1.73
2023-01-30T12:58:28.970Z,1.85
2023-01-30T12:59:33.954Z,2.01
2023-01-30T13:00:46.580Z,2.02
2023-01-30T13:01:51.889Z,2.18
2023-01-30T13:03:03.179Z,2.02
2023-01-30T13:04:22.267Z,2.15
2023-01-30T13:05:38.115Z,2.22
2023-01-30T13:06:59.052Z,2.12
2023-01-30T13:08:07.999Z,2.11
2023-01-30T13:09:14.107Z,1.96
2023-01-30T13:10:19.453Z,1.89
2023-01-30T13:11:39.821Z,1.73
2023-01-30T16:46:17.646Z,1.82
2023-01-30T16:47:28.878Z,1.53
2023-01-30T16:50:01.945Z,1.76
2023-01-30T16:51:08.005Z,1.63
2023-01-30T16:52:24.477Z,1.64
2023-01-30T16:54:41.953Z,1.89
2023-01-30T16:56:04.464Z,1.69
2023-01-30T16:57:08.043Z,1.66
2023-01-30T16:58:12.067Z,1.88
2023-01-30T16:59:17.140Z,1.94
2023-01-30T17:00:22.573Z,1.73
2023-01-30T17:01:27.083Z,1.82
2023-01-30T17:02:36.137Z,1.96
2023-01-30T17:03:40.582Z,1.84
2023-01-30T17:04:43.453Z,1.76
2023-01-30T17:05:49.706Z,1.74
2023-01-30T17:06:54.335Z,1.74
2023-01-30T17:07:58.104Z,1.70
2023-01-30T17:09:03.031Z,1.70
2023-01-30T17:10:06.822Z,1.68
2023-01-30T17:11:10.223Z,1.72
2023-01-30T17:12:32.946Z,1.67
2023-01-30T17:13:43.036Z,1.64
2023-01-30T17:14:46.454Z,1.63
2023-01-30T17:15:49.006Z,1.50
2023-01-30T17:17:07.468Z,1.51
2023-01-30T17:18:10.213Z,1.32
2023-01-30T17:19:16.448Z,1.30
2023-01-30T17:20:20.565Z,1.26
2023-01-30T17:21:24.060Z,1.27
2023-01-30T17:22:29.417Z,1.29
2023-01-30T17:23:32.873Z,1.33
2023-01-30T17:24:36.883Z,1.27
2023-01-30T17:25:41.000Z,1.39
2023-01-30T17:26:44.254Z,1.31
2023-01-30T17:27:49.068Z,1.24
2023-01-30T17:28:52.471Z,1.18
2023-01-30T17:29:55.997Z,1.08
2023-01-30T17:30:59.367Z,1.14
2023-01-30T17:32:04.695Z,1.29
2023-01-30T17:33:09.310Z,1.27
2023-01-30T17:34:15.504Z,1.31
2023-01-30T17:35:19.242Z,1.46
2023-01-30T17:36:24.880Z,0.98
2023-01-30T17:37:28.353Z,1.05
2023-01-30T17:38:32.272Z,1.20
2023-01-30T17:39:36.604Z,1.35
2023-01-30T17:40:40.013Z,1.25
2023-01-30T17:41:44.895Z,1.34
2023-01-30T17:42:50.220Z,1.33
2023-01-30T17:43:53.759Z,1.41
2023-01-30T17:45:00.613Z,1.29
2023-01-30T17:46:04.350Z,1.11
2023-01-30T17:47:09.192Z,1.03
2023-01-30T17:48:14.612Z,0.98
2023-01-30T17:49:18.812Z,1.01
2023-01-30T17:50:22.261Z,0.98
2023-01-30T17:51:25.489Z,0.96
2023-01-30T17:52:29.586Z,1.01
2023-01-30T17:53:32.965Z,0.99
2023-01-30T17:54:35.710Z,1.04
2023-01-30T17:55:39.029Z,1.05
2023-01-30T17:56:43.339Z,1.16
2023-01-30T17:57:48.630Z,1.23
2023-01-30T17:58:52.023Z,1.17
2023-01-30T17:59:56.133Z,0.95
2023-01-30T18:00:59.436Z,0.76
2023-01-30T18:02:02.702Z,0.87
2023-01-30T18:03:06.419Z,1.09
2023-01-30T18:04:09.996Z,0.96
2023-01-30T18:05:14.092Z,0.84
2023-01-30T18:06:18.620Z,1.11
2023-01-30T18:07:24.320Z,1.21
2023-01-30T18:08:30.206Z,1.25
2023-01-30T18:09:33.443Z,1.28
2023-01-30T18:10:39.867Z,1.19
2023-01-30T18:11:45.044Z,1.17
2023-01-30T18:12:48.761Z,1.07
2023-01-30T18:13:52.249Z,1.00
2023-01-30T18:14:55.772Z,1.06
2023-01-30T18:16:03.036Z,1.10
2023-01-30T18:17:05.467Z,1.00
2023-01-30T18:18:12.782Z,1.19
2023-01-30T18:19:18.070Z,1.07
2023-01-30T18:20:24.109Z,0.95
2023-01-30T18:21:27.651Z,0.86